Terminal Aerodrome Forecast
Issued by NWS Wilmington, NC

Current Version | Previous Version | Graphics & Text | Print | Product List | Glossary Off
Versions: 1 2 3 4 5 6 7 8 9 10 11 12 13 14 15 16 17 18 19 20 21

000
FTUS42 KILM 271519 AAB
TAFLBT
TAF AMD
KLBT 271519Z 2715/2812 34010G18KT 4SM -RA SCT008 BKN020
     FM271600 32010G17KT 6SM -RA BR OVC008
     FM271700 36010KT 6SM -RA BKN010 OVC030
     FM272100 02010KT P6SM BKN016=

USA.gov is the U.S. government's official web portal to all federal, state and local government web resources and services.